sensor_id;sensor_type;location;lat;lon;timestamp;P1;durP1;ratioP1;P2;durP2;ratioP2
52744;SDS011;38637;49.984;20.426;2022-12-18T00:03:50;69.07;;;30.10;;
52744;SDS011;38637;49.984;20.426;2022-12-18T00:08:42;66.83;;;27.27;;
52744;SDS011;38637;49.984;20.426;2022-12-18T00:11:10;68.70;;;32.33;;
52744;SDS011;38637;49.984;20.426;2022-12-18T00:13:38;66.97;;;29.83;;
52744;SDS011;38637;49.984;20.426;2022-12-18T00:16:04;72.07;;;30.30;;
52744;SDS011;38637;49.984;20.426;2022-12-18T00:18:31;64.67;;;27.97;;
52744;SDS011;38637;49.984;20.426;2022-12-18T00:21:01;75.07;;;28.90;;
52744;SDS011;38637;49.984;20.426;2022-12-18T00:23:28;76.50;;;31.73;;
52744;SDS011;38637;49.984;20.426;2022-12-18T00:25:54;62.53;;;24.55;;
52744;SDS011;38637;49.984;20.426;2022-12-18T00:28:19;53.77;;;24.53;;
52744;SDS011;38637;49.984;20.426;2022-12-18T00:30:45;70.23;;;32.97;;
52744;SDS011;38637;49.984;20.426;2022-12-18T00:33:10;50.77;;;20.87;;
52744;SDS011;38637;49.984;20.426;2022-12-18T00:35:35;54.57;;;26.00;;
52744;SDS011;38637;49.984;20.426;2022-12-18T00:38:01;57.83;;;25.70;;
52744;SDS011;38637;49.984;20.426;2022-12-18T00:40:26;78.47;;;34.53;;
52744;SDS011;38637;49.984;20.426;2022-12-18T00:42:52;77.03;;;32.37;;
52744;SDS011;38637;49.984;20.426;2022-12-18T00:45:26;64.23;;;28.90;;
52744;SDS011;38637;49.984;20.426;2022-12-18T00:47:53;59.10;;;24.83;;
52744;SDS011;38637;49.984;20.426;2022-12-18T00:50:18;73.93;;;34.10;;
52744;SDS011;38637;49.984;20.426;2022-12-18T00:52:44;72.93;;;31.77;;
52744;SDS011;38637;49.984;20.426;2022-12-18T00:55:09;79.53;;;31.77;;
52744;SDS011;38637;49.984;20.426;2022-12-18T00:57:36;62.05;;;26.27;;
52744;SDS011;38637;49.984;20.426;2022-12-18T01:00:02;67.63;;;29.20;;
52744;SDS011;38637;49.984;20.426;2022-12-18T01:02:28;58.13;;;20.07;;
52744;SDS011;38637;49.984;20.426;2022-12-18T01:04:54;61.43;;;30.60;;
52744;SDS011;38637;49.984;20.426;2022-12-18T01:07:19;79.30;;;31.13;;
52744;SDS011;38637;49.984;20.426;2022-12-18T01:09:44;71.57;;;31.60;;
52744;SDS011;38637;49.984;20.426;2022-12-18T01:12:09;67.53;;;28.80;;
52744;SDS011;38637;49.984;20.426;2022-12-18T01:14:35;70.47;;;30.10;;
52744;SDS011;38637;49.984;20.426;2022-12-18T01:17:02;70.17;;;26.63;;
52744;SDS011;38637;49.984;20.426;2022-12-18T01:19:28;52.90;;;23.92;;
52744;SDS011;38637;49.984;20.426;2022-12-18T01:21:54;44.77;;;18.90;;
52744;SDS011;38637;49.984;20.426;2022-12-18T01:24:19;62.33;;;27.80;;
52744;SDS011;38637;49.984;20.426;2022-12-18T01:26:44;62.90;;;26.57;;
52744;SDS011;38637;49.984;20.426;2022-12-18T01:29:10;72.70;;;30.43;;
52744;SDS011;38637;49.984;20.426;2022-12-18T01:31:35;65.13;;;30.93;;
52744;SDS011;38637;49.984;20.426;2022-12-18T01:34:01;63.87;;;28.00;;
52744;SDS011;38637;49.984;20.426;2022-12-18T01:36:28;68.70;;;29.38;;
52744;SDS011;38637;49.984;20.426;2022-12-18T01:38:55;55.73;;;21.17;;
52744;SDS011;38637;49.984;20.426;2022-12-18T01:41:26;74.95;;;31.20;;
52744;SDS011;38637;49.984;20.426;2022-12-18T01:47:17;44.30;;;22.20;;
52744;SDS011;38637;49.984;20.426;2022-12-18T01:49:43;52.23;;;19.87;;
52744;SDS011;38637;49.984;20.426;2022-12-18T01:52:09;53.60;;;24.57;;
52744;SDS011;38637;49.984;20.426;2022-12-18T01:54:34;54.37;;;22.17;;
52744;SDS011;38637;49.984;20.426;2022-12-18T01:56:59;69.27;;;32.00;;
52744;SDS011;38637;49.984;20.426;2022-12-18T01:59:25;70.63;;;30.27;;
52744;SDS011;38637;49.984;20.426;2022-12-18T02:01:52;68.07;;;30.03;;
52744;SDS011;38637;49.984;20.426;2022-12-18T02:06:48;53.63;;;23.57;;
52744;SDS011;38637;49.984;20.426;2022-12-18T02:09:25;38.33;;;20.43;;
52744;SDS011;38637;49.984;20.426;2022-12-18T02:11:59;59.30;;;25.87;;
52744;SDS011;38637;49.984;20.426;2022-12-18T02:14:40;36.53;;;17.53;;
52744;SDS011;38637;49.984;20.426;2022-12-18T02:22:37;60.53;;;28.53;;
52744;SDS011;38637;49.984;20.426;2022-12-18T02:25:27;48.23;;;22.80;;
52744;SDS011;38637;49.984;20.426;2022-12-18T02:28:06;62.00;;;26.03;;
52744;SDS011;38637;49.984;20.426;2022-12-18T02:30:36;63.10;;;31.00;;
52744;SDS011;38637;49.984;20.426;2022-12-18T02:33:04;55.33;;;28.67;;
52744;SDS011;38637;49.984;20.426;2022-12-18T02:35:31;60.13;;;26.83;;
52744;SDS011;38637;49.984;20.426;2022-12-18T02:37:59;55.37;;;25.70;;
52744;SDS011;38637;49.984;20.426;2022-12-18T02:40:26;60.55;;;27.77;;
52744;SDS011;38637;49.984;20.426;2022-12-18T02:42:53;62.97;;;26.50;;
52744;SDS011;38637;49.984;20.426;2022-12-18T02:45:18;62.57;;;26.63;;
52744;SDS011;38637;49.984;20.426;2022-12-18T02:47:45;61.27;;;26.17;;
52744;SDS011;38637;49.984;20.426;2022-12-18T03:04:19;61.60;;;27.90;;
52744;SDS011;38637;49.984;20.426;2022-12-18T03:06:50;68.30;;;29.70;;
52744;SDS011;38637;49.984;20.426;2022-12-18T03:09:21;64.97;;;27.60;;
52744;SDS011;38637;49.984;20.426;2022-12-18T03:11:53;65.17;;;29.83;;
52744;SDS011;38637;49.984;20.426;2022-12-18T03:14:40;53.17;;;25.57;;
52744;SDS011;38637;49.984;20.426;2022-12-18T03:17:11;70.40;;;30.77;;
52744;SDS011;38637;49.984;20.426;2022-12-18T03:19:40;61.57;;;27.87;;
52744;SDS011;38637;49.984;20.426;2022-12-18T03:22:08;60.83;;;28.23;;
52744;SDS011;38637;49.984;20.426;2022-12-18T03:24:35;62.58;;;29.23;;
52744;SDS011;38637;49.984;20.426;2022-12-18T03:27:06;65.00;;;30.40;;
52744;SDS011;38637;49.984;20.426;2022-12-18T03:32:23;66.73;;;29.30;;
52744;SDS011;38637;49.984;20.426;2022-12-18T03:34:52;63.27;;;30.87;;
52744;SDS011;38637;49.984;20.426;2022-12-18T03:37:21;65.37;;;31.07;;
52744;SDS011;38637;49.984;20.426;2022-12-18T03:39:47;60.47;;;28.87;;
52744;SDS011;38637;49.984;20.426;2022-12-18T03:42:25;69.20;;;31.53;;
52744;SDS011;38637;49.984;20.426;2022-12-18T03:44:58;62.70;;;30.60;;
52744;SDS011;38637;49.984;20.426;2022-12-18T03:50:11;56.13;;;24.67;;
52744;SDS011;38637;49.984;20.426;2022-12-18T03:52:47;53.77;;;24.67;;
52744;SDS011;38637;49.984;20.426;2022-12-18T03:55:17;57.37;;;27.03;;
52744;SDS011;38637;49.984;20.426;2022-12-18T03:57:44;55.90;;;28.53;;
52744;SDS011;38637;49.984;20.426;2022-12-18T04:00:12;60.97;;;28.23;;
52744;SDS011;38637;49.984;20.426;2022-12-18T04:02:41;62.23;;;27.00;;
52744;SDS011;38637;49.984;20.426;2022-12-18T04:05:10;54.10;;;25.67;;
52744;SDS011;38637;49.984;20.426;2022-12-18T04:07:37;53.97;;;26.37;;
52744;SDS011;38637;49.984;20.426;2022-12-18T04:10:05;57.08;;;28.08;;
52744;SDS011;38637;49.984;20.426;2022-12-18T04:12:32;61.33;;;29.33;;
52744;SDS011;38637;49.984;20.426;2022-12-18T04:14:57;56.33;;;28.73;;
52744;SDS011;38637;49.984;20.426;2022-12-18T04:17:23;53.87;;;26.63;;
52744;SDS011;38637;49.984;20.426;2022-12-18T04:19:48;59.97;;;29.33;;
52744;SDS011;38637;49.984;20.426;2022-12-18T04:22:14;58.20;;;28.37;;
52744;SDS011;38637;49.984;20.426;2022-12-18T04:24:39;62.97;;;29.17;;
52744;SDS011;38637;49.984;20.426;2022-12-18T04:27:04;65.10;;;29.50;;
52744;SDS011;38637;49.984;20.426;2022-12-18T04:29:30;67.63;;;31.23;;
52744;SDS011;38637;49.984;20.426;2022-12-18T04:31:55;67.90;;;29.20;;
52744;SDS011;38637;49.984;20.426;2022-12-18T04:34:21;65.77;;;29.60;;
52744;SDS011;38637;49.984;20.426;2022-12-18T04:36:46;65.00;;;32.20;;
52744;SDS011;38637;49.984;20.426;2022-12-18T04:39:11;62.37;;;31.47;;
52744;SDS011;38637;49.984;20.426;2022-12-18T04:41:37;55.63;;;27.67;;
52744;SDS011;38637;49.984;20.426;2022-12-18T04:44:02;60.73;;;30.37;;
52744;SDS011;38637;49.984;20.426;2022-12-18T04:46:29;60.30;;;28.10;;
52744;SDS011;38637;49.984;20.426;2022-12-18T04:48:54;62.27;;;29.20;;
52744;SDS011;38637;49.984;20.426;2022-12-18T04:51:19;68.20;;;34.33;;
52744;SDS011;38637;49.984;20.426;2022-12-18T04:53:45;70.53;;;33.10;;
52744;SDS011;38637;49.984;20.426;2022-12-18T04:56:11;65.67;;;27.97;;
52744;SDS011;38637;49.984;20.426;2022-12-18T04:58:38;59.33;;;26.87;;
52744;SDS011;38637;49.984;20.426;2022-12-18T05:01:06;66.20;;;32.20;;
52744;SDS011;38637;49.984;20.426;2022-12-18T05:05:58;68.40;;;31.93;;
52744;SDS011;38637;49.984;20.426;2022-12-18T05:08:23;63.97;;;30.40;;
52744;SDS011;38637;49.984;20.426;2022-12-18T05:10:48;54.47;;;25.30;;
52744;SDS011;38637;49.984;20.426;2022-12-18T05:13:14;60.33;;;27.50;;
52744;SDS011;38637;49.984;20.426;2022-12-18T05:15:39;62.93;;;30.43;;
52744;SDS011;38637;49.984;20.426;2022-12-18T05:18:04;65.27;;;31.30;;
52744;SDS011;38637;49.984;20.426;2022-12-18T05:20:30;59.53;;;27.97;;
52744;SDS011;38637;49.984;20.426;2022-12-18T05:22:56;62.20;;;27.43;;
52744;SDS011;38637;49.984;20.426;2022-12-18T05:25:22;65.88;;;29.83;;
52744;SDS011;38637;49.984;20.426;2022-12-18T05:27:47;60.25;;;27.30;;
52744;SDS011;38637;49.984;20.426;2022-12-18T05:30:13;65.90;;;28.60;;
52744;SDS011;38637;49.984;20.426;2022-12-18T05:32:39;65.75;;;29.35;;
52744;SDS011;38637;49.984;20.426;2022-12-18T05:35:05;64.07;;;31.13;;
52744;SDS011;38637;49.984;20.426;2022-12-18T05:37:35;61.07;;;28.97;;
52744;SDS011;38637;49.984;20.426;2022-12-18T05:40:00;62.80;;;28.63;;
52744;SDS011;38637;49.984;20.426;2022-12-18T05:42:26;66.18;;;31.20;;
52744;SDS011;38637;49.984;20.426;2022-12-18T05:44:51;65.50;;;32.47;;
52744;SDS011;38637;49.984;20.426;2022-12-18T05:47:17;58.07;;;28.43;;
52744;SDS011;38637;49.984;20.426;2022-12-18T05:49:42;62.97;;;30.97;;
52744;SDS011;38637;49.984;20.426;2022-12-18T05:52:07;50.63;;;23.83;;
52744;SDS011;38637;49.984;20.426;2022-12-18T05:54:33;60.00;;;25.42;;
52744;SDS011;38637;49.984;20.426;2022-12-18T05:56:59;63.00;;;26.40;;
52744;SDS011;38637;49.984;20.426;2022-12-18T05:59:24;67.27;;;30.27;;
52744;SDS011;38637;49.984;20.426;2022-12-18T06:01:49;63.77;;;29.30;;
52744;SDS011;38637;49.984;20.426;2022-12-18T06:04:15;56.90;;;28.97;;
52744;SDS011;38637;49.984;20.426;2022-12-18T06:06:40;58.83;;;25.70;;
52744;SDS011;38637;49.984;20.426;2022-12-18T06:09:06;66.77;;;31.33;;
52744;SDS011;38637;49.984;20.426;2022-12-18T06:11:35;64.83;;;27.90;;
52744;SDS011;38637;49.984;20.426;2022-12-18T06:14:01;57.03;;;26.67;;
52744;SDS011;38637;49.984;20.426;2022-12-18T06:16:28;60.80;;;28.75;;
52744;SDS011;38637;49.984;20.426;2022-12-18T06:18:57;57.17;;;27.07;;
52744;SDS011;38637;49.984;20.426;2022-12-18T06:21:23;64.30;;;29.13;;
52744;SDS011;38637;49.984;20.426;2022-12-18T06:23:49;58.30;;;22.37;;
52744;SDS011;38637;49.984;20.426;2022-12-18T06:26:14;54.70;;;24.37;;
52744;SDS011;38637;49.984;20.426;2022-12-18T06:28:40;65.17;;;27.57;;
52744;SDS011;38637;49.984;20.426;2022-12-18T06:31:05;62.70;;;29.10;;
52744;SDS011;38637;49.984;20.426;2022-12-18T06:33:32;55.17;;;22.30;;
52744;SDS011;38637;49.984;20.426;2022-12-18T06:36:01;70.32;;;33.00;;
52744;SDS011;38637;49.984;20.426;2022-12-18T06:38:27;69.17;;;31.27;;
52744;SDS011;38637;49.984;20.426;2022-12-18T06:40:52;69.10;;;29.00;;
52744;SDS011;38637;49.984;20.426;2022-12-18T06:43:17;66.60;;;30.27;;
52744;SDS011;38637;49.984;20.426;2022-12-18T06:45:43;57.93;;;28.50;;
52744;SDS011;38637;49.984;20.426;2022-12-18T06:48:08;64.03;;;29.73;;
52744;SDS011;38637;49.984;20.426;2022-12-18T06:50:33;62.27;;;29.47;;
52744;SDS011;38637;49.984;20.426;2022-12-18T06:52:59;55.90;;;24.07;;
52744;SDS011;38637;49.984;20.426;2022-12-18T06:55:24;62.53;;;26.23;;
52744;SDS011;38637;49.984;20.426;2022-12-18T06:57:49;54.97;;;24.63;;
52744;SDS011;38637;49.984;20.426;2022-12-18T07:00:15;55.20;;;27.27;;
52744;SDS011;38637;49.984;20.426;2022-12-18T07:02:40;60.57;;;27.30;;
52744;SDS011;38637;49.984;20.426;2022-12-18T07:05:06;63.60;;;27.87;;
52744;SDS011;38637;49.984;20.426;2022-12-18T07:07:33;70.77;;;32.40;;
52744;SDS011;38637;49.984;20.426;2022-12-18T07:09:59;69.30;;;32.07;;
52744;SDS011;38637;49.984;20.426;2022-12-18T07:12:24;63.77;;;31.67;;
52744;SDS011;38637;49.984;20.426;2022-12-18T07:14:51;58.88;;;26.75;;
52744;SDS011;38637;49.984;20.426;2022-12-18T07:17:16;64.17;;;30.37;;
52744;SDS011;38637;49.984;20.426;2022-12-18T07:19:41;56.73;;;27.13;;
52744;SDS011;38637;49.984;20.426;2022-12-18T07:22:07;60.77;;;26.83;;
52744;SDS011;38637;49.984;20.426;2022-12-18T07:24:32;70.47;;;31.73;;
52744;SDS011;38637;49.984;20.426;2022-12-18T07:26:59;63.22;;;29.33;;
52744;SDS011;38637;49.984;20.426;2022-12-18T07:29:24;67.13;;;31.77;;
52744;SDS011;38637;49.984;20.426;2022-12-18T07:31:49;56.70;;;27.53;;
52744;SDS011;38637;49.984;20.426;2022-12-18T07:34:14;65.60;;;30.50;;
52744;SDS011;38637;49.984;20.426;2022-12-18T07:36:40;65.50;;;27.60;;
52744;SDS011;38637;49.984;20.426;2022-12-18T07:39:05;58.57;;;28.90;;
52744;SDS011;38637;49.984;20.426;2022-12-18T07:41:31;54.67;;;27.63;;
52744;SDS011;38637;49.984;20.426;2022-12-18T07:43:56;60.90;;;29.40;;
52744;SDS011;38637;49.984;20.426;2022-12-18T07:46:21;61.27;;;27.73;;
52744;SDS011;38637;49.984;20.426;2022-12-18T07:48:47;66.17;;;29.70;;
52744;SDS011;38637;49.984;20.426;2022-12-18T07:51:12;71.77;;;32.20;;
52744;SDS011;38637;49.984;20.426;2022-12-18T07:53:38;57.00;;;26.80;;
52744;SDS011;38637;49.984;20.426;2022-12-18T07:56:05;53.97;;;26.13;;
52744;SDS011;38637;49.984;20.426;2022-12-18T07:58:33;56.00;;;27.60;;
52744;SDS011;38637;49.984;20.426;2022-12-18T08:03:32;62.73;;;27.23;;
52744;SDS011;38637;49.984;20.426;2022-12-18T08:05:59;64.20;;;30.70;;
52744;SDS011;38637;49.984;20.426;2022-12-18T08:08:25;66.77;;;30.00;;
52744;SDS011;38637;49.984;20.426;2022-12-18T08:10:50;58.17;;;31.17;;
52744;SDS011;38637;49.984;20.426;2022-12-18T08:13:15;58.00;;;29.90;;
52744;SDS011;38637;49.984;20.426;2022-12-18T08:15:41;60.67;;;29.73;;
52744;SDS011;38637;49.984;20.426;2022-12-18T08:18:06;58.87;;;30.57;;
52744;SDS011;38637;49.984;20.426;2022-12-18T08:20:31;65.20;;;27.93;;
52744;SDS011;38637;49.984;20.426;2022-12-18T08:22:56;66.30;;;32.17;;
52744;SDS011;38637;49.984;20.426;2022-12-18T08:25:23;63.10;;;30.50;;
52744;SDS011;38637;49.984;20.426;2022-12-18T08:27:48;52.60;;;27.20;;
52744;SDS011;38637;49.984;20.426;2022-12-18T08:30:13;65.03;;;30.83;;
52744;SDS011;38637;49.984;20.426;2022-12-18T08:32:39;60.90;;;33.97;;
52744;SDS011;38637;49.984;20.426;2022-12-18T08:35:04;58.00;;;29.50;;
52744;SDS011;38637;49.984;20.426;2022-12-18T08:37:30;68.87;;;30.93;;
52744;SDS011;38637;49.984;20.426;2022-12-18T08:39:55;55.47;;;28.73;;
52744;SDS011;38637;49.984;20.426;2022-12-18T08:42:20;61.53;;;30.07;;
52744;SDS011;38637;49.984;20.426;2022-12-18T08:45:04;60.00;;;29.67;;
52744;SDS011;38637;49.984;20.426;2022-12-18T08:47:30;64.78;;;29.85;;
52744;SDS011;38637;49.984;20.426;2022-12-18T08:49:55;66.93;;;31.17;;
52744;SDS011;38637;49.984;20.426;2022-12-18T08:52:20;66.20;;;34.40;;
52744;SDS011;38637;49.984;20.426;2022-12-18T08:54:46;57.47;;;29.70;;
52744;SDS011;38637;49.984;20.426;2022-12-18T08:57:11;64.97;;;31.27;;
52744;SDS011;38637;49.984;20.426;2022-12-18T08:59:36;47.70;;;25.00;;
52744;SDS011;38637;49.984;20.426;2022-12-18T09:02:02;59.90;;;31.50;;
52744;SDS011;38637;49.984;20.426;2022-12-18T09:04:27;53.60;;;24.87;;
52744;SDS011;38637;49.984;20.426;2022-12-18T09:06:52;62.47;;;29.83;;
52744;SDS011;38637;49.984;20.426;2022-12-18T09:09:17;54.40;;;26.17;;
52744;SDS011;38637;49.984;20.426;2022-12-18T09:11:43;51.60;;;25.20;;
52744;SDS011;38637;49.984;20.426;2022-12-18T09:14:08;52.77;;;30.07;;
52744;SDS011;38637;49.984;20.426;2022-12-18T09:16:34;55.67;;;27.20;;
52744;SDS011;38637;49.984;20.426;2022-12-18T09:19:00;58.20;;;31.87;;
52744;SDS011;38637;49.984;20.426;2022-12-18T09:21:28;62.53;;;31.50;;
52744;SDS011;38637;49.984;20.426;2022-12-18T09:23:55;62.03;;;31.07;;
52744;SDS011;38637;49.984;20.426;2022-12-18T09:26:21;56.78;;;29.45;;
52744;SDS011;38637;49.984;20.426;2022-12-18T09:28:48;53.53;;;24.05;;
52744;SDS011;38637;49.984;20.426;2022-12-18T09:31:15;60.03;;;31.77;;
52744;SDS011;38637;49.984;20.426;2022-12-18T09:33:42;51.33;;;24.90;;
52744;SDS011;38637;49.984;20.426;2022-12-18T09:36:08;58.10;;;26.57;;
52744;SDS011;38637;49.984;20.426;2022-12-18T09:38:35;52.00;;;26.73;;
52744;SDS011;38637;49.984;20.426;2022-12-18T09:43:49;54.33;;;26.93;;
52744;SDS011;38637;49.984;20.426;2022-12-18T09:46:18;63.30;;;33.23;;
52744;SDS011;38637;49.984;20.426;2022-12-18T09:48:51;52.67;;;27.87;;
52744;SDS011;38637;49.984;20.426;2022-12-18T09:51:21;52.77;;;27.73;;
52744;SDS011;38637;49.984;20.426;2022-12-18T09:53:53;57.83;;;28.87;;
52744;SDS011;38637;49.984;20.426;2022-12-18T09:56:22;54.57;;;28.47;;
52744;SDS011;38637;49.984;20.426;2022-12-18T09:58:53;53.47;;;27.07;;
52744;SDS011;38637;49.984;20.426;2022-12-18T10:01:22;59.60;;;29.17;;
52744;SDS011;38637;49.984;20.426;2022-12-18T10:03:48;53.38;;;27.42;;
52744;SDS011;38637;49.984;20.426;2022-12-18T10:06:17;54.30;;;29.05;;
52744;SDS011;38637;49.984;20.426;2022-12-18T10:08:49;52.40;;;27.10;;
52744;SDS011;38637;49.984;20.426;2022-12-18T10:17:00;55.22;;;29.40;;
52744;SDS011;38637;49.984;20.426;2022-12-18T10:19:45;55.63;;;29.40;;
52744;SDS011;38637;49.984;20.426;2022-12-18T10:27:35;49.17;;;25.27;;
52744;SDS011;38637;49.984;20.426;2022-12-18T10:30:04;55.97;;;29.90;;
52744;SDS011;38637;49.984;20.426;2022-12-18T10:32:37;55.78;;;29.55;;
52744;SDS011;38637;49.984;20.426;2022-12-18T10:35:03;50.47;;;29.77;;
52744;SDS011;38637;49.984;20.426;2022-12-18T10:37:29;51.77;;;28.00;;
52744;SDS011;38637;49.984;20.426;2022-12-18T10:40:14;54.63;;;29.23;;
52744;SDS011;38637;49.984;20.426;2022-12-18T10:42:41;56.13;;;29.85;;
52744;SDS011;38637;49.984;20.426;2022-12-18T10:45:16;54.22;;;28.48;;
52744;SDS011;38637;49.984;20.426;2022-12-18T10:47:45;51.90;;;27.75;;
52744;SDS011;38637;49.984;20.426;2022-12-18T10:53:13;51.45;;;27.05;;
52744;SDS011;38637;49.984;20.426;2022-12-18T10:55:50;58.63;;;27.70;;
52744;SDS011;38637;49.984;20.426;2022-12-18T10:58:28;51.13;;;27.98;;
52744;SDS011;38637;49.984;20.426;2022-12-18T11:06:09;57.40;;;28.75;;
52744;SDS011;38637;49.984;20.426;2022-12-18T11:08:39;53.55;;;28.67;;
52744;SDS011;38637;49.984;20.426;2022-12-18T11:11:07;53.42;;;28.67;;
52744;SDS011;38637;49.984;20.426;2022-12-18T11:13:48;48.30;;;26.45;;
52744;SDS011;38637;49.984;20.426;2022-12-18T11:16:42;43.90;;;23.85;;
52744;SDS011;38637;49.984;20.426;2022-12-18T11:22:32;49.45;;;25.95;;
52744;SDS011;38637;49.984;20.426;2022-12-18T11:27:47;42.17;;;22.67;;
52744;SDS011;38637;49.984;20.426;2022-12-18T11:33:37;39.53;;;22.20;;
52744;SDS011;38637;49.984;20.426;2022-12-18T11:36:49;31.67;;;17.25;;
52744;SDS011;38637;49.984;20.426;2022-12-18T11:39:19;35.53;;;21.77;;
52744;SDS011;38637;49.984;20.426;2022-12-18T11:41:54;48.00;;;26.85;;
52744;SDS011;38637;49.984;20.426;2022-12-18T11:44:59;48.78;;;29.40;;
52744;SDS011;38637;49.984;20.426;2022-12-18T11:47:44;50.25;;;27.25;;
52744;SDS011;38637;49.984;20.426;2022-12-18T11:50:16;48.03;;;26.23;;
52744;SDS011;38637;49.984;20.426;2022-12-18T11:52:43;43.50;;;23.33;;
52744;SDS011;38637;49.984;20.426;2022-12-18T11:55:13;54.67;;;27.47;;
52744;SDS011;38637;49.984;20.426;2022-12-18T12:00:52;41.85;;;24.42;;
52744;SDS011;38637;49.984;20.426;2022-12-18T12:17:49;44.83;;;25.38;;
52744;SDS011;38637;49.984;20.426;2022-12-18T12:20:42;48.85;;;27.98;;
52744;SDS011;38637;49.984;20.426;2022-12-18T12:26:06;66.53;;;36.03;;
52744;SDS011;38637;49.984;20.426;2022-12-18T12:31:28;60.05;;;35.88;;
52744;SDS011;38637;49.984;20.426;2022-12-18T12:37:01;56.53;;;30.45;;
52744;SDS011;38637;49.984;20.426;2022-12-18T12:39:34;52.88;;;30.27;;
52744;SDS011;38637;49.984;20.426;2022-12-18T12:42:03;52.70;;;28.20;;
52744;SDS011;38637;49.984;20.426;2022-12-18T12:44:53;49.78;;;27.45;;
52744;SDS011;38637;49.984;20.426;2022-12-18T12:47:30;51.55;;;26.48;;
52744;SDS011;38637;49.984;20.426;2022-12-18T12:49:58;51.90;;;28.45;;
52744;SDS011;38637;49.984;20.426;2022-12-18T12:52:35;49.13;;;27.08;;
52744;SDS011;38637;49.984;20.426;2022-12-18T12:57:36;59.77;;;29.97;;
52744;SDS011;38637;49.984;20.426;2022-12-18T13:02:39;55.80;;;31.35;;
52744;SDS011;38637;49.984;20.426;2022-12-18T13:05:23;60.00;;;34.78;;
52744;SDS011;38637;49.984;20.426;2022-12-18T13:07:59;55.35;;;32.85;;
52744;SDS011;38637;49.984;20.426;2022-12-18T13:10:35;62.15;;;37.90;;
52744;SDS011;38637;49.984;20.426;2022-12-18T13:13:04;58.70;;;33.95;;
52744;SDS011;38637;49.984;20.426;2022-12-18T13:18:05;51.80;;;30.08;;
52744;SDS011;38637;49.984;20.426;2022-12-18T13:20:36;51.72;;;30.02;;
52744;SDS011;38637;49.984;20.426;2022-12-18T13:25:53;57.97;;;33.28;;
52744;SDS011;38637;49.984;20.426;2022-12-18T13:31:05;62.58;;;37.50;;
52744;SDS011;38637;49.984;20.426;2022-12-18T13:33:41;58.83;;;34.20;;
52744;SDS011;38637;49.984;20.426;2022-12-18T13:36:15;63.05;;;36.45;;
52744;SDS011;38637;49.984;20.426;2022-12-18T13:41:36;62.85;;;36.85;;
52744;SDS011;38637;49.984;20.426;2022-12-18T13:46:59;64.88;;;36.78;;
52744;SDS011;38637;49.984;20.426;2022-12-18T13:49:36;70.88;;;38.20;;
52744;SDS011;38637;49.984;20.426;2022-12-18T13:52:19;62.03;;;38.83;;
52744;SDS011;38637;49.984;20.426;2022-12-18T13:54:59;65.32;;;38.75;;
52744;SDS011;38637;49.984;20.426;2022-12-18T14:02:54;63.15;;;36.60;;
52744;SDS011;38637;49.984;20.426;2022-12-18T14:05:33;76.28;;;45.33;;
52744;SDS011;38637;49.984;20.426;2022-12-18T14:08:02;83.95;;;47.40;;
52744;SDS011;38637;49.984;20.426;2022-12-18T14:10:31;76.65;;;43.30;;
52744;SDS011;38637;49.984;20.426;2022-12-18T14:12:56;76.47;;;44.10;;
52744;SDS011;38637;49.984;20.426;2022-12-18T14:15:40;89.80;;;47.38;;
52744;SDS011;38637;49.984;20.426;2022-12-18T14:20:54;86.25;;;50.03;;
52744;SDS011;38637;49.984;20.426;2022-12-18T14:23:33;103.73;;;58.53;;
52744;SDS011;38637;49.984;20.426;2022-12-18T14:26:03;110.53;;;58.23;;
52744;SDS011;38637;49.984;20.426;2022-12-18T14:28:45;144.67;;;67.07;;
52744;SDS011;38637;49.984;20.426;2022-12-18T14:31:18;124.83;;;63.20;;
52744;SDS011;38637;49.984;20.426;2022-12-18T14:33:47;143.70;;;70.43;;
52744;SDS011;38637;49.984;20.426;2022-12-18T14:36:17;123.70;;;64.40;;
52744;SDS011;38637;49.984;20.426;2022-12-18T14:38:47;164.63;;;79.13;;
52744;SDS011;38637;49.984;20.426;2022-12-18T14:41:15;140.73;;;71.30;;
52744;SDS011;38637;49.984;20.426;2022-12-18T14:49:04;101.43;;;53.80;;
52744;SDS011;38637;49.984;20.426;2022-12-18T14:51:48;105.82;;;53.35;;
52744;SDS011;38637;49.984;20.426;2022-12-18T14:54:16;129.27;;;68.00;;
52744;SDS011;38637;49.984;20.426;2022-12-18T14:56:44;152.90;;;77.70;;
52744;SDS011;38637;49.984;20.426;2022-12-18T14:59:13;203.83;;;101.90;;
52744;SDS011;38637;49.984;20.426;2022-12-18T15:04:59;89.23;;;47.17;;
52744;SDS011;38637;49.984;20.426;2022-12-18T15:07:39;74.40;;;44.13;;
52744;SDS011;38637;49.984;20.426;2022-12-18T15:10:20;82.70;;;46.50;;
52744;SDS011;38637;49.984;20.426;2022-12-18T15:26:09;159.53;;;83.40;;
52744;SDS011;38637;49.984;20.426;2022-12-18T15:28:37;187.60;;;97.93;;
52744;SDS011;38637;49.984;20.426;2022-12-18T15:33:37;194.80;;;97.63;;
52744;SDS011;38637;49.984;20.426;2022-12-18T15:36:04;202.30;;;101.10;;
52744;SDS011;38637;49.984;20.426;2022-12-18T15:38:34;216.13;;;109.17;;
52744;SDS011;38637;49.984;20.426;2022-12-18T15:40:59;199.87;;;103.73;;
52744;SDS011;38637;49.984;20.426;2022-12-18T15:43:25;174.20;;;97.97;;
52744;SDS011;38637;49.984;20.426;2022-12-18T15:46:01;185.40;;;101.00;;
52744;SDS011;38637;49.984;20.426;2022-12-18T15:48:36;167.43;;;97.00;;
52744;SDS011;38637;49.984;20.426;2022-12-18T15:51:05;144.53;;;78.63;;
52744;SDS011;38637;49.984;20.426;2022-12-18T15:53:38;165.27;;;85.93;;
52744;SDS011;38637;49.984;20.426;2022-12-18T15:56:04;167.10;;;86.60;;
52744;SDS011;38637;49.984;20.426;2022-12-18T15:58:48;188.93;;;95.47;;
52744;SDS011;38637;49.984;20.426;2022-12-18T16:01:14;222.33;;;115.27;;
52744;SDS011;38637;49.984;20.426;2022-12-18T16:03:39;199.63;;;105.03;;
52744;SDS011;38637;49.984;20.426;2022-12-18T16:06:05;190.20;;;102.23;;
52744;SDS011;38637;49.984;20.426;2022-12-18T16:08:30;201.23;;;103.70;;
52744;SDS011;38637;49.984;20.426;2022-12-18T16:10:57;170.25;;;94.05;;
52744;SDS011;38637;49.984;20.426;2022-12-18T16:13:23;190.05;;;100.07;;
52744;SDS011;38637;49.984;20.426;2022-12-18T16:15:48;186.40;;;103.47;;
52744;SDS011;38637;49.984;20.426;2022-12-18T16:18:14;161.85;;;89.50;;
52744;SDS011;38637;49.984;20.426;2022-12-18T16:20:39;188.97;;;98.07;;
52744;SDS011;38637;49.984;20.426;2022-12-18T16:23:06;194.90;;;102.73;;
52744;SDS011;38637;49.984;20.426;2022-12-18T16:25:32;218.20;;;113.23;;
52744;SDS011;38637;49.984;20.426;2022-12-18T16:27:57;185.33;;;95.30;;
52744;SDS011;38637;49.984;20.426;2022-12-18T16:30:27;196.97;;;105.80;;
52744;SDS011;38637;49.984;20.426;2022-12-18T16:32:55;176.60;;;93.23;;
52744;SDS011;38637;49.984;20.426;2022-12-18T16:35:21;183.97;;;97.53;;
52744;SDS011;38637;49.984;20.426;2022-12-18T16:37:46;200.53;;;108.23;;
52744;SDS011;38637;49.984;20.426;2022-12-18T16:40:13;175.03;;;99.60;;
52744;SDS011;38637;49.984;20.426;2022-12-18T16:42:40;161.80;;;91.07;;
52744;SDS011;38637;49.984;20.426;2022-12-18T16:45:07;133.57;;;74.20;;